sensor_id;sensor_type;location;lat;lon;timestamp;P1;durP1;ratioP1;P2;durP2;ratioP2
17983;SDS011;9117;52.420;20.728;2023-05-07T00:01:59;9.03;;;5.10;;
17983;SDS011;9117;52.420;20.728;2023-05-07T00:04:27;9.47;;;5.40;;
17983;SDS011;9117;52.420;20.728;2023-05-07T00:07:02;10.33;;;4.50;;
17983;SDS011;9117;52.420;20.728;2023-05-07T00:09:30;7.70;;;4.40;;
17983;SDS011;9117;52.420;20.728;2023-05-07T00:11:58;9.73;;;4.80;;
17983;SDS011;9117;52.420;20.728;2023-05-07T00:14:26;11.10;;;4.90;;
17983;SDS011;9117;52.420;20.728;2023-05-07T00:16:56;10.03;;;4.50;;
17983;SDS011;9117;52.420;20.728;2023-05-07T00:19:24;10.93;;;4.67;;
17983;SDS011;9117;52.420;20.728;2023-05-07T00:21:52;7.37;;;4.40;;
17983;SDS011;9117;52.420;20.728;2023-05-07T00:24:22;7.60;;;4.10;;
17983;SDS011;9117;52.420;20.728;2023-05-07T00:26:50;8.60;;;4.47;;
17983;SDS011;9117;52.420;20.728;2023-05-07T00:29:19;6.40;;;4.17;;
17983;SDS011;9117;52.420;20.728;2023-05-07T00:31:48;8.00;;;4.30;;
17983;SDS011;9117;52.420;20.728;2023-05-07T00:34:19;8.57;;;4.63;;
17983;SDS011;9117;52.420;20.728;2023-05-07T00:36:47;7.63;;;4.53;;
17983;SDS011;9117;52.420;20.728;2023-05-07T00:39:16;8.63;;;4.33;;
17983;SDS011;9117;52.420;20.728;2023-05-07T00:41:44;6.37;;;4.20;;
17983;SDS011;9117;52.420;20.728;2023-05-07T00:44:12;6.47;;;4.33;;
17983;SDS011;9117;52.420;20.728;2023-05-07T00:46:40;8.60;;;5.13;;
17983;SDS011;9117;52.420;20.728;2023-05-07T00:49:08;10.97;;;5.87;;
17983;SDS011;9117;52.420;20.728;2023-05-07T00:51:38;7.70;;;5.07;;
17983;SDS011;9117;52.420;20.728;2023-05-07T00:54:06;7.77;;;4.63;;
17983;SDS011;9117;52.420;20.728;2023-05-07T00:56:36;13.13;;;4.67;;
17983;SDS011;9117;52.420;20.728;2023-05-07T00:59:05;6.30;;;4.30;;
17983;SDS011;9117;52.420;20.728;2023-05-07T01:01:34;10.70;;;4.53;;
17983;SDS011;9117;52.420;20.728;2023-05-07T01:04:03;7.30;;;3.67;;
17983;SDS011;9117;52.420;20.728;2023-05-07T01:06:31;6.20;;;3.93;;
17983;SDS011;9117;52.420;20.728;2023-05-07T01:09:02;9.50;;;4.20;;
17983;SDS011;9117;52.420;20.728;2023-05-07T01:11:31;7.90;;;4.27;;
17983;SDS011;9117;52.420;20.728;2023-05-07T01:13:59;6.77;;;3.90;;
17983;SDS011;9117;52.420;20.728;2023-05-07T01:16:27;9.10;;;3.27;;
17983;SDS011;9117;52.420;20.728;2023-05-07T01:18:56;6.33;;;3.97;;
17983;SDS011;9117;52.420;20.728;2023-05-07T01:21:24;6.93;;;4.03;;
17983;SDS011;9117;52.420;20.728;2023-05-07T01:23:55;11.17;;;4.10;;
17983;SDS011;9117;52.420;20.728;2023-05-07T01:26:24;6.90;;;4.07;;
17983;SDS011;9117;52.420;20.728;2023-05-07T01:28:53;7.10;;;3.80;;
17983;SDS011;9117;52.420;20.728;2023-05-07T01:31:21;8.17;;;3.77;;
17983;SDS011;9117;52.420;20.728;2023-05-07T01:33:52;6.90;;;3.90;;
17983;SDS011;9117;52.420;20.728;2023-05-07T01:36:21;6.50;;;3.50;;
17983;SDS011;9117;52.420;20.728;2023-05-07T01:38:52;6.73;;;3.77;;
17983;SDS011;9117;52.420;20.728;2023-05-07T01:41:24;5.87;;;3.30;;
17983;SDS011;9117;52.420;20.728;2023-05-07T01:43:53;6.00;;;3.40;;
17983;SDS011;9117;52.420;20.728;2023-05-07T01:46:22;7.70;;;3.43;;
17983;SDS011;9117;52.420;20.728;2023-05-07T01:48:50;5.87;;;3.73;;
17983;SDS011;9117;52.420;20.728;2023-05-07T01:51:20;9.77;;;3.67;;
17983;SDS011;9117;52.420;20.728;2023-05-07T01:53:48;8.20;;;4.43;;
17983;SDS011;9117;52.420;20.728;2023-05-07T01:56:20;7.43;;;4.27;;
17983;SDS011;9117;52.420;20.728;2023-05-07T01:58:48;10.70;;;3.60;;
17983;SDS011;9117;52.420;20.728;2023-05-07T02:01:18;5.83;;;3.73;;
17983;SDS011;9117;52.420;20.728;2023-05-07T02:03:47;5.03;;;3.90;;
17983;SDS011;9117;52.420;20.728;2023-05-07T02:06:15;7.23;;;3.90;;
17983;SDS011;9117;52.420;20.728;2023-05-07T02:08:43;6.93;;;3.93;;
17983;SDS011;9117;52.420;20.728;2023-05-07T02:11:12;6.43;;;3.57;;
17983;SDS011;9117;52.420;20.728;2023-05-07T02:13:41;6.30;;;3.10;;
17983;SDS011;9117;52.420;20.728;2023-05-07T02:16:10;4.63;;;2.70;;
17983;SDS011;9117;52.420;20.728;2023-05-07T02:18:40;6.03;;;2.87;;
17983;SDS011;9117;52.420;20.728;2023-05-07T02:21:08;7.77;;;3.40;;
17983;SDS011;9117;52.420;20.728;2023-05-07T02:23:36;5.37;;;2.83;;
17983;SDS011;9117;52.420;20.728;2023-05-07T02:26:05;5.30;;;2.87;;
17983;SDS011;9117;52.420;20.728;2023-05-07T02:28:33;5.13;;;3.10;;
17983;SDS011;9117;52.420;20.728;2023-05-07T02:31:03;6.00;;;3.60;;
17983;SDS011;9117;52.420;20.728;2023-05-07T02:33:32;6.70;;;3.47;;
17983;SDS011;9117;52.420;20.728;2023-05-07T02:36:07;6.63;;;3.93;;
17983;SDS011;9117;52.420;20.728;2023-05-07T02:38:36;7.77;;;4.30;;
17983;SDS011;9117;52.420;20.728;2023-05-07T02:41:05;6.47;;;3.20;;
17983;SDS011;9117;52.420;20.728;2023-05-07T02:43:33;4.53;;;3.07;;
17983;SDS011;9117;52.420;20.728;2023-05-07T02:46:03;6.73;;;3.07;;
17983;SDS011;9117;52.420;20.728;2023-05-07T02:48:32;5.07;;;3.40;;
17983;SDS011;9117;52.420;20.728;2023-05-07T02:51:01;4.87;;;2.90;;
17983;SDS011;9117;52.420;20.728;2023-05-07T02:53:31;5.57;;;3.37;;
17983;SDS011;9117;52.420;20.728;2023-05-07T02:56:00;4.97;;;2.87;;
17983;SDS011;9117;52.420;20.728;2023-05-07T02:58:28;4.43;;;2.87;;
17983;SDS011;9117;52.420;20.728;2023-05-07T03:00:57;3.53;;;2.30;;
17983;SDS011;9117;52.420;20.728;2023-05-07T03:03:26;4.10;;;2.53;;
17983;SDS011;9117;52.420;20.728;2023-05-07T03:05:55;3.73;;;2.57;;
17983;SDS011;9117;52.420;20.728;2023-05-07T03:08:23;4.27;;;2.30;;
17983;SDS011;9117;52.420;20.728;2023-05-07T03:10:51;4.03;;;2.30;;
17983;SDS011;9117;52.420;20.728;2023-05-07T03:13:20;3.50;;;2.50;;
17983;SDS011;9117;52.420;20.728;2023-05-07T03:15:48;3.67;;;2.27;;
17983;SDS011;9117;52.420;20.728;2023-05-07T03:18:16;4.27;;;2.47;;
17983;SDS011;9117;52.420;20.728;2023-05-07T03:20:48;4.20;;;2.23;;
17983;SDS011;9117;52.420;20.728;2023-05-07T03:23:16;3.63;;;2.20;;
17983;SDS011;9117;52.420;20.728;2023-05-07T03:25:44;3.67;;;2.40;;
17983;SDS011;9117;52.420;20.728;2023-05-07T03:28:12;5.27;;;2.50;;
17983;SDS011;9117;52.420;20.728;2023-05-07T03:30:41;4.97;;;2.10;;
17983;SDS011;9117;52.420;20.728;2023-05-07T03:33:09;3.77;;;2.40;;
17983;SDS011;9117;52.420;20.728;2023-05-07T03:35:37;4.90;;;2.40;;
17983;SDS011;9117;52.420;20.728;2023-05-07T03:38:06;4.40;;;2.70;;
17983;SDS011;9117;52.420;20.728;2023-05-07T03:40:35;6.67;;;2.40;;
17983;SDS011;9117;52.420;20.728;2023-05-07T03:43:03;4.60;;;2.67;;
17983;SDS011;9117;52.420;20.728;2023-05-07T03:45:31;3.53;;;2.47;;
17983;SDS011;9117;52.420;20.728;2023-05-07T03:47:59;3.57;;;2.40;;
17983;SDS011;9117;52.420;20.728;2023-05-07T03:50:28;3.60;;;2.30;;
17983;SDS011;9117;52.420;20.728;2023-05-07T03:52:56;4.77;;;2.60;;
17983;SDS011;9117;52.420;20.728;2023-05-07T03:55:25;4.23;;;2.43;;
17983;SDS011;9117;52.420;20.728;2023-05-07T03:57:53;4.13;;;2.50;;
17983;SDS011;9117;52.420;20.728;2023-05-07T04:00:22;4.40;;;3.07;;
17983;SDS011;9117;52.420;20.728;2023-05-07T04:02:51;6.07;;;2.60;;
17983;SDS011;9117;52.420;20.728;2023-05-07T04:05:19;3.30;;;2.40;;
17983;SDS011;9117;52.420;20.728;2023-05-07T04:07:47;4.13;;;2.87;;
17983;SDS011;9117;52.420;20.728;2023-05-07T04:10:15;6.03;;;2.60;;
17983;SDS011;9117;52.420;20.728;2023-05-07T04:12:45;4.77;;;2.47;;
17983;SDS011;9117;52.420;20.728;2023-05-07T04:15:13;3.60;;;2.60;;
17983;SDS011;9117;52.420;20.728;2023-05-07T04:17:42;3.57;;;2.37;;
17983;SDS011;9117;52.420;20.728;2023-05-07T04:20:12;4.67;;;2.90;;
17983;SDS011;9117;52.420;20.728;2023-05-07T04:22:41;6.37;;;2.87;;
17983;SDS011;9117;52.420;20.728;2023-05-07T04:25:10;4.23;;;2.70;;
17983;SDS011;9117;52.420;20.728;2023-05-07T04:27:38;4.67;;;2.13;;
17983;SDS011;9117;52.420;20.728;2023-05-07T04:30:08;4.13;;;2.80;;
17983;SDS011;9117;52.420;20.728;2023-05-07T04:32:38;4.17;;;2.70;;
17983;SDS011;9117;52.420;20.728;2023-05-07T04:35:06;5.77;;;2.80;;
17983;SDS011;9117;52.420;20.728;2023-05-07T04:37:35;5.53;;;2.90;;
17983;SDS011;9117;52.420;20.728;2023-05-07T04:40:03;4.20;;;2.33;;
17983;SDS011;9117;52.420;20.728;2023-05-07T04:42:32;6.03;;;2.20;;
17983;SDS011;9117;52.420;20.728;2023-05-07T04:45:01;3.17;;;2.20;;
17983;SDS011;9117;52.420;20.728;2023-05-07T04:47:30;5.83;;;2.83;;
17983;SDS011;9117;52.420;20.728;2023-05-07T04:49:59;3.67;;;2.30;;
17983;SDS011;9117;52.420;20.728;2023-05-07T04:52:27;4.50;;;2.47;;
17983;SDS011;9117;52.420;20.728;2023-05-07T04:54:55;3.27;;;2.27;;
17983;SDS011;9117;52.420;20.728;2023-05-07T04:57:23;4.63;;;2.57;;
17983;SDS011;9117;52.420;20.728;2023-05-07T04:59:52;4.47;;;2.60;;
17983;SDS011;9117;52.420;20.728;2023-05-07T05:02:21;5.03;;;2.93;;
17983;SDS011;9117;52.420;20.728;2023-05-07T05:04:50;5.40;;;2.60;;
17983;SDS011;9117;52.420;20.728;2023-05-07T05:07:19;4.77;;;2.70;;
17983;SDS011;9117;52.420;20.728;2023-05-07T05:09:47;4.93;;;2.97;;
17983;SDS011;9117;52.420;20.728;2023-05-07T05:12:15;3.63;;;2.60;;
17983;SDS011;9117;52.420;20.728;2023-05-07T05:14:43;6.27;;;3.17;;
17983;SDS011;9117;52.420;20.728;2023-05-07T05:17:11;4.57;;;3.00;;
17983;SDS011;9117;52.420;20.728;2023-05-07T05:19:39;4.43;;;2.93;;
17983;SDS011;9117;52.420;20.728;2023-05-07T05:22:09;4.40;;;3.10;;
17983;SDS011;9117;52.420;20.728;2023-05-07T05:24:37;5.93;;;3.17;;
17983;SDS011;9117;52.420;20.728;2023-05-07T05:27:06;5.17;;;3.07;;
17983;SDS011;9117;52.420;20.728;2023-05-07T05:29:34;5.97;;;2.80;;
17983;SDS011;9117;52.420;20.728;2023-05-07T05:32:02;3.97;;;2.50;;
17983;SDS011;9117;52.420;20.728;2023-05-07T05:34:31;4.50;;;2.27;;
17983;SDS011;9117;52.420;20.728;2023-05-07T05:36:59;4.23;;;2.87;;
17983;SDS011;9117;52.420;20.728;2023-05-07T05:39:29;6.77;;;2.67;;
17983;SDS011;9117;52.420;20.728;2023-05-07T05:41:57;3.83;;;2.50;;
17983;SDS011;9117;52.420;20.728;2023-05-07T05:44:25;3.97;;;2.93;;
17983;SDS011;9117;52.420;20.728;2023-05-07T05:46:54;4.57;;;3.17;;
17983;SDS011;9117;52.420;20.728;2023-05-07T05:49:24;3.97;;;2.80;;
17983;SDS011;9117;52.420;20.728;2023-05-07T05:51:52;5.80;;;3.27;;
17983;SDS011;9117;52.420;20.728;2023-05-07T05:54:20;3.37;;;2.37;;
17983;SDS011;9117;52.420;20.728;2023-05-07T05:56:49;5.17;;;3.20;;
17983;SDS011;9117;52.420;20.728;2023-05-07T05:59:18;4.63;;;2.70;;
17983;SDS011;9117;52.420;20.728;2023-05-07T06:01:46;4.10;;;2.70;;
17983;SDS011;9117;52.420;20.728;2023-05-07T06:04:14;5.17;;;3.23;;
17983;SDS011;9117;52.420;20.728;2023-05-07T06:06:43;4.17;;;2.80;;
17983;SDS011;9117;52.420;20.728;2023-05-07T06:09:11;5.93;;;2.97;;
17983;SDS011;9117;52.420;20.728;2023-05-07T06:11:39;6.37;;;2.33;;
17983;SDS011;9117;52.420;20.728;2023-05-07T06:14:09;5.13;;;2.67;;
17983;SDS011;9117;52.420;20.728;2023-05-07T06:16:37;5.80;;;3.10;;
17983;SDS011;9117;52.420;20.728;2023-05-07T06:19:05;5.30;;;3.50;;
17983;SDS011;9117;52.420;20.728;2023-05-07T06:21:34;7.70;;;3.63;;
17983;SDS011;9117;52.420;20.728;2023-05-07T06:24:02;5.40;;;2.90;;
17983;SDS011;9117;52.420;20.728;2023-05-07T06:26:30;4.63;;;2.80;;
17983;SDS011;9117;52.420;20.728;2023-05-07T06:28:58;3.53;;;2.63;;
17983;SDS011;9117;52.420;20.728;2023-05-07T06:31:29;4.83;;;2.90;;
17983;SDS011;9117;52.420;20.728;2023-05-07T06:33:58;4.37;;;3.00;;
17983;SDS011;9117;52.420;20.728;2023-05-07T06:36:28;5.70;;;2.20;;
17983;SDS011;9117;52.420;20.728;2023-05-07T06:38:56;7.70;;;3.00;;
17983;SDS011;9117;52.420;20.728;2023-05-07T06:41:24;3.97;;;3.40;;
17983;SDS011;9117;52.420;20.728;2023-05-07T06:43:53;3.63;;;2.30;;
17983;SDS011;9117;52.420;20.728;2023-05-07T06:46:21;6.23;;;2.63;;
17983;SDS011;9117;52.420;20.728;2023-05-07T06:48:51;3.77;;;2.80;;
17983;SDS011;9117;52.420;20.728;2023-05-07T06:51:19;3.57;;;2.47;;
17983;SDS011;9117;52.420;20.728;2023-05-07T06:53:47;4.05;;;2.78;;
17983;SDS011;9117;52.420;20.728;2023-05-07T06:56:16;4.90;;;2.30;;
17983;SDS011;9117;52.420;20.728;2023-05-07T06:58:44;3.83;;;2.50;;
17983;SDS011;9117;52.420;20.728;2023-05-07T07:01:12;6.03;;;2.40;;
17983;SDS011;9117;52.420;20.728;2023-05-07T07:03:41;4.27;;;2.33;;
17983;SDS011;9117;52.420;20.728;2023-05-07T07:06:10;3.60;;;2.10;;
17983;SDS011;9117;52.420;20.728;2023-05-07T07:08:39;3.67;;;2.30;;
17983;SDS011;9117;52.420;20.728;2023-05-07T07:11:07;2.40;;;1.80;;
17983;SDS011;9117;52.420;20.728;2023-05-07T07:13:36;3.40;;;2.07;;
17983;SDS011;9117;52.420;20.728;2023-05-07T07:16:04;5.97;;;2.40;;
17983;SDS011;9117;52.420;20.728;2023-05-07T07:18:33;2.72;;;2.15;;
17983;SDS011;9117;52.420;20.728;2023-05-07T07:21:02;2.87;;;2.20;;
17983;SDS011;9117;52.420;20.728;2023-05-07T07:23:32;3.20;;;2.40;;
17983;SDS011;9117;52.420;20.728;2023-05-07T07:26:00;3.90;;;2.60;;
17983;SDS011;9117;52.420;20.728;2023-05-07T07:28:28;3.47;;;2.00;;
17983;SDS011;9117;52.420;20.728;2023-05-07T07:30:56;4.23;;;2.53;;
17983;SDS011;9117;52.420;20.728;2023-05-07T07:33:25;3.03;;;2.07;;
17983;SDS011;9117;52.420;20.728;2023-05-07T07:35:53;4.73;;;2.23;;
17983;SDS011;9117;52.420;20.728;2023-05-07T07:38:22;2.37;;;1.90;;
17983;SDS011;9117;52.420;20.728;2023-05-07T07:40:52;4.10;;;2.00;;
17983;SDS011;9117;52.420;20.728;2023-05-07T07:43:21;2.77;;;2.10;;
17983;SDS011;9117;52.420;20.728;2023-05-07T07:45:49;3.83;;;2.10;;
17983;SDS011;9117;52.420;20.728;2023-05-07T07:48:17;4.00;;;1.93;;
17983;SDS011;9117;52.420;20.728;2023-05-07T07:50:48;3.03;;;2.30;;
17983;SDS011;9117;52.420;20.728;2023-05-07T07:53:16;4.38;;;2.50;;
17983;SDS011;9117;52.420;20.728;2023-05-07T07:55:44;3.40;;;2.10;;
17983;SDS011;9117;52.420;20.728;2023-05-07T07:58:14;4.10;;;2.40;;
17983;SDS011;9117;52.420;20.728;2023-05-07T08:00:42;2.90;;;1.97;;
17983;SDS011;9117;52.420;20.728;2023-05-07T08:03:10;4.03;;;2.43;;
17983;SDS011;9117;52.420;20.728;2023-05-07T08:05:39;4.57;;;2.20;;
17983;SDS011;9117;52.420;20.728;2023-05-07T08:08:07;2.70;;;2.07;;
17983;SDS011;9117;52.420;20.728;2023-05-07T08:10:36;3.90;;;2.50;;
17983;SDS011;9117;52.420;20.728;2023-05-07T08:13:05;3.07;;;2.10;;
17983;SDS011;9117;52.420;20.728;2023-05-07T08:15:35;3.72;;;2.00;;
17983;SDS011;9117;52.420;20.728;2023-05-07T08:18:03;5.27;;;2.13;;
17983;SDS011;9117;52.420;20.728;2023-05-07T08:20:32;2.63;;;1.90;;
17983;SDS011;9117;52.420;20.728;2023-05-07T08:23:05;3.55;;;1.70;;
17983;SDS011;9117;52.420;20.728;2023-05-07T08:25:34;3.40;;;1.55;;
17983;SDS011;9117;52.420;20.728;2023-05-07T08:28:02;2.33;;;1.90;;
17983;SDS011;9117;52.420;20.728;2023-05-07T08:30:32;3.35;;;1.85;;
17983;SDS011;9117;52.420;20.728;2023-05-07T08:33:01;3.70;;;1.50;;
17983;SDS011;9117;52.420;20.728;2023-05-07T08:35:30;2.83;;;1.70;;
17983;SDS011;9117;52.420;20.728;2023-05-07T08:37:58;2.97;;;2.30;;
17983;SDS011;9117;52.420;20.728;2023-05-07T08:40:26;6.22;;;1.70;;
17983;SDS011;9117;52.420;20.728;2023-05-07T08:42:56;2.80;;;1.80;;
17983;SDS011;9117;52.420;20.728;2023-05-07T08:45:25;3.35;;;2.17;;
17983;SDS011;9117;52.420;20.728;2023-05-07T08:47:57;3.08;;;1.75;;
17983;SDS011;9117;52.420;20.728;2023-05-07T08:50:28;2.05;;;1.73;;
17983;SDS011;9117;52.420;20.728;2023-05-07T08:52:56;3.08;;;2.22;;
17983;SDS011;9117;52.420;20.728;2023-05-07T08:55:26;3.28;;;2.00;;
17983;SDS011;9117;52.420;20.728;2023-05-07T08:57:56;3.13;;;1.77;;
17983;SDS011;9117;52.420;20.728;2023-05-07T09:00:24;5.88;;;2.75;;
17983;SDS011;9117;52.420;20.728;2023-05-07T09:02:53;3.15;;;1.90;;
17983;SDS011;9117;52.420;20.728;2023-05-07T09:05:21;3.65;;;1.80;;
17983;SDS011;9117;52.420;20.728;2023-05-07T09:07:51;5.10;;;2.03;;
17983;SDS011;9117;52.420;20.728;2023-05-07T09:10:20;2.13;;;1.70;;
17983;SDS011;9117;52.420;20.728;2023-05-07T09:12:48;3.25;;;2.00;;
17983;SDS011;9117;52.420;20.728;2023-05-07T09:15:18;2.40;;;1.90;;
17983;SDS011;9117;52.420;20.728;2023-05-07T09:17:46;2.00;;;1.80;;
17983;SDS011;9117;52.420;20.728;2023-05-07T09:20:14;3.97;;;1.95;;
17983;SDS011;9117;52.420;20.728;2023-05-07T09:22:44;2.15;;;1.70;;
17983;SDS011;9117;52.420;20.728;2023-05-07T09:25:13;5.22;;;2.97;;
17983;SDS011;9117;52.420;20.728;2023-05-07T09:27:42;3.28;;;1.67;;
17983;SDS011;9117;52.420;20.728;2023-05-07T09:30:10;5.65;;;1.73;;
17983;SDS011;9117;52.420;20.728;2023-05-07T09:32:39;4.50;;;2.40;;
17983;SDS011;9117;52.420;20.728;2023-05-07T09:35:11;8.82;;;1.75;;
17983;SDS011;9117;52.420;20.728;2023-05-07T09:37:42;5.85;;;1.77;;
17983;SDS011;9117;52.420;20.728;2023-05-07T09:40:21;3.88;;;1.90;;
17983;SDS011;9117;52.420;20.728;2023-05-07T09:42:49;2.40;;;1.90;;
17983;SDS011;9117;52.420;20.728;2023-05-07T09:45:21;3.03;;;1.70;;
17983;SDS011;9117;52.420;20.728;2023-05-07T09:47:53;10.45;;;2.72;;
17983;SDS011;9117;52.420;20.728;2023-05-07T09:50:25;2.65;;;1.98;;
17983;SDS011;9117;52.420;20.728;2023-05-07T09:52:55;6.07;;;2.10;;
17983;SDS011;9117;52.420;20.728;2023-05-07T09:55:25;6.05;;;1.70;;
17983;SDS011;9117;52.420;20.728;2023-05-07T09:57:54;2.70;;;1.80;;
17983;SDS011;9117;52.420;20.728;2023-05-07T10:00:22;3.03;;;1.60;;
17983;SDS011;9117;52.420;20.728;2023-05-07T10:02:53;4.63;;;1.90;;
17983;SDS011;9117;52.420;20.728;2023-05-07T10:05:25;4.38;;;1.67;;
17983;SDS011;9117;52.420;20.728;2023-05-07T10:07:53;3.05;;;1.70;;
17983;SDS011;9117;52.420;20.728;2023-05-07T10:10:23;4.15;;;1.80;;
17983;SDS011;9117;52.420;20.728;2023-05-07T10:12:53;5.30;;;1.63;;
17983;SDS011;9117;52.420;20.728;2023-05-07T10:15:22;3.47;;;1.48;;
17983;SDS011;9117;52.420;20.728;2023-05-07T10:17:51;2.95;;;2.08;;
17983;SDS011;9117;52.420;20.728;2023-05-07T10:20:21;3.92;;;1.77;;
17983;SDS011;9117;52.420;20.728;2023-05-07T10:22:50;4.32;;;1.90;;
17983;SDS011;9117;52.420;20.728;2023-05-07T10:25:20;3.08;;;1.55;;
17983;SDS011;9117;52.420;20.728;2023-05-07T10:27:59;3.33;;;2.13;;
17983;SDS011;9117;52.420;20.728;2023-05-07T10:30:32;5.68;;;1.98;;
17983;SDS011;9117;52.420;20.728;2023-05-07T10:33:06;3.10;;;2.00;;
17983;SDS011;9117;52.420;20.728;2023-05-07T10:35:39;5.30;;;1.67;;
17983;SDS011;9117;52.420;20.728;2023-05-07T10:38:08;3.20;;;1.90;;
17983;SDS011;9117;52.420;20.728;2023-05-07T10:40:37;3.75;;;2.08;;
17983;SDS011;9117;52.420;20.728;2023-05-07T10:43:06;3.30;;;1.75;;
17983;SDS011;9117;52.420;20.728;2023-05-07T10:45:36;5.18;;;1.90;;
17983;SDS011;9117;52.420;20.728;2023-05-07T10:48:08;3.50;;;2.42;;
17983;SDS011;9117;52.420;20.728;2023-05-07T10:53:47;4.43;;;1.90;;
17983;SDS011;9117;52.420;20.728;2023-05-07T10:56:25;2.72;;;1.30;;
17983;SDS011;9117;52.420;20.728;2023-05-07T10:58:56;2.10;;;1.60;;
17983;SDS011;9117;52.420;20.728;2023-05-07T11:02:00;6.03;;;2.58;;
17983;SDS011;9117;52.420;20.728;2023-05-07T11:04:30;1.92;;;1.40;;
17983;SDS011;9117;52.420;20.728;2023-05-07T11:12:53;12.80;;;3.60;;
17983;SDS011;9117;52.420;20.728;2023-05-07T11:15:39;6.03;;;2.08;;
17983;SDS011;9117;52.420;20.728;2023-05-07T11:18:12;2.45;;;1.50;;
17983;SDS011;9117;52.420;20.728;2023-05-07T11:20:47;4.30;;;1.73;;
17983;SDS011;9117;52.420;20.728;2023-05-07T11:26:23;3.03;;;1.65;;
17983;SDS011;9117;52.420;20.728;2023-05-07T11:28:52;8.00;;;1.98;;
17983;SDS011;9117;52.420;20.728;2023-05-07T11:31:23;5.53;;;1.90;;
17983;SDS011;9117;52.420;20.728;2023-05-07T11:33:54;2.47;;;1.45;;
17983;SDS011;9117;52.420;20.728;2023-05-07T11:36:23;6.05;;;1.42;;
17983;SDS011;9117;52.420;20.728;2023-05-07T11:38:52;2.70;;;1.85;;
17983;SDS011;9117;52.420;20.728;2023-05-07T11:41:20;2.00;;;1.60;;
17983;SDS011;9117;52.420;20.728;2023-05-07T11:43:55;2.72;;;2.05;;
17983;SDS011;9117;52.420;20.728;2023-05-07T11:46:26;3.70;;;1.85;;
17983;SDS011;9117;52.420;20.728;2023-05-07T11:48:55;4.30;;;1.60;;
17983;SDS011;9117;52.420;20.728;2023-05-07T11:51:24;5.18;;;1.60;;
17983;SDS011;9117;52.420;20.728;2023-05-07T11:53:53;3.97;;;1.80;;
17983;SDS011;9117;52.420;20.728;2023-05-07T11:56:21;2.92;;;1.58;;
17983;SDS011;9117;52.420;20.728;2023-05-07T11:58:50;3.03;;;1.60;;
17983;SDS011;9117;52.420;20.728;2023-05-07T12:01:18;2.75;;;1.45;;
17983;SDS011;9117;52.420;20.728;2023-05-07T12:03:48;2.95;;;1.50;;
17983;SDS011;9117;52.420;20.728;2023-05-07T12:06:16;1.73;;;1.30;;
17983;SDS011;9117;52.420;20.728;2023-05-07T12:08:45;2.40;;;1.50;;
17983;SDS011;9117;52.420;20.728;2023-05-07T12:11:14;2.63;;;1.70;;
17983;SDS011;9117;52.420;20.728;2023-05-07T12:13:48;2.88;;;1.70;;
17983;SDS011;9117;52.420;20.728;2023-05-07T12:16:17;3.38;;;1.70;;
17983;SDS011;9117;52.420;20.728;2023-05-07T12:18:48;3.30;;;1.75;;
17983;SDS011;9117;52.420;20.728;2023-05-07T12:21:16;4.43;;;1.80;;
17983;SDS011;9117;52.420;20.728;2023-05-07T12:23:44;2.15;;;1.50;;
17983;SDS011;9117;52.420;20.728;2023-05-07T12:26:13;2.45;;;1.60;;
17983;SDS011;9117;52.420;20.728;2023-05-07T12:28:41;3.42;;;2.10;;
17983;SDS011;9117;52.420;20.728;2023-05-07T12:31:09;2.22;;;1.60;;
17983;SDS011;9117;52.420;20.728;2023-05-07T12:33:37;3.92;;;1.80;;
17983;SDS011;9117;52.420;20.728;2023-05-07T12:36:08;2.85;;;1.73;;
17983;SDS011;9117;52.420;20.728;2023-05-07T12:38:40;4.03;;;1.83;;
17983;SDS011;9117;52.420;20.728;2023-05-07T12:41:08;4.97;;;1.85;;
17983;SDS011;9117;52.420;20.728;2023-05-07T12:43:39;4.32;;;1.70;;
17983;SDS011;9117;52.420;20.728;2023-05-07T12:46:07;4.03;;;1.83;;
17983;SDS011;9117;52.420;20.728;2023-05-07T12:48:36;3.13;;;1.50;;
17983;SDS011;9117;52.420;20.728;2023-05-07T12:51:05;4.28;;;1.83;;
17983;SDS011;9117;52.420;20.728;2023-05-07T12:53:40;3.55;;;1.40;;
17983;SDS011;9117;52.420;20.728;2023-05-07T12:56:09;4.32;;;1.52;;
17983;SDS011;9117;52.420;20.728;2023-05-07T12:58:37;3.55;;;1.60;;
17983;SDS011;9117;52.420;20.728;2023-05-07T13:01:06;4.38;;;1.70;;
17983;SDS011;9117;52.420;20.728;2023-05-07T13:03:37;3.45;;;1.83;;
17983;SDS011;9117;52.420;20.728;2023-05-07T13:06:06;2.72;;;1.88;;
17983;SDS011;9117;52.420;20.728;2023-05-07T13:08:40;2.30;;;1.52;;
17983;SDS011;9117;52.420;20.728;2023-05-07T13:11:10;4.43;;;1.65;;
17983;SDS011;9117;52.420;20.728;2023-05-07T13:13:39;2.00;;;1.48;;
17983;SDS011;9117;52.420;20.728;2023-05-07T13:16:09;2.42;;;1.50;;
17983;SDS011;9117;52.420;20.728;2023-05-07T13:18:39;4.88;;;1.38;;
17983;SDS011;9117;52.420;20.728;2023-05-07T13:21:10;1.50;;;1.40;;
17983;SDS011;9117;52.420;20.728;2023-05-07T13:23:40;4.97;;;1.55;;
17983;SDS011;9117;52.420;20.728;2023-05-07T13:26:09;3.70;;;1.55;;
17983;SDS011;9117;52.420;20.728;2023-05-07T13:28:51;4.03;;;1.35;;
17983;SDS011;9117;52.420;20.728;2023-05-07T13:31:20;3.13;;;1.55;;
17983;SDS011;9117;52.420;20.728;2023-05-07T13:33:48;6.05;;;1.50;;
17983;SDS011;9117;52.420;20.728;2023-05-07T13:36:16;4.30;;;1.60;;
17983;SDS011;9117;52.420;20.728;2023-05-07T13:38:46;3.00;;;1.55;;
17983;SDS011;9117;52.420;20.728;2023-05-07T13:41:14;2.50;;;1.50;;
17983;SDS011;9117;52.420;20.728;2023-05-07T13:43:43;3.83;;;1.40;;
17983;SDS011;9117;52.420;20.728;2023-05-07T13:46:11;6.68;;;3.97;;
17983;SDS011;9117;52.420;20.728;2023-05-07T13:48:39;5.15;;;1.63;;
17983;SDS011;9117;52.420;20.728;2023-05-07T13:51:08;1.73;;;1.33;;
17983;SDS011;9117;52.420;20.728;2023-05-07T13:53:36;2.72;;;2.17;;
17983;SDS011;9117;52.420;20.728;2023-05-07T13:56:06;2.30;;;1.83;;
17983;SDS011;9117;52.420;20.728;2023-05-07T13:58:34;2.97;;;1.42;;
17983;SDS011;9117;52.420;20.728;2023-05-07T14:01:10;5.30;;;1.63;;
17983;SDS011;9117;52.420;20.728;2023-05-07T14:03:38;6.53;;;1.85;;
17983;SDS011;9117;52.420;20.728;2023-05-07T14:06:07;3.20;;;1.80;;
17983;SDS011;9117;52.420;20.728;2023-05-07T14:08:36;3.00;;;1.48;;
17983;SDS011;9117;52.420;20.728;2023-05-07T14:11:05;1.95;;;1.27;;
17983;SDS011;9117;52.420;20.728;2023-05-07T14:13:33;1.90;;;1.30;;
17983;SDS011;9117;52.420;20.728;2023-05-07T14:16:03;2.10;;;1.35;;
17983;SDS011;9117;52.420;20.728;2023-05-07T14:18:32;3.25;;;1.77;;
17983;SDS011;9117;52.420;20.728;2023-05-07T14:21:03;2.03;;;1.20;;
17983;SDS011;9117;52.420;20.728;2023-05-07T14:23:33;4.20;;;1.50;;
17983;SDS011;9117;52.420;20.728;2023-05-07T14:26:02;2.50;;;1.30;;
17983;SDS011;9117;52.420;20.728;2023-05-07T14:28:32;3.33;;;2.10;;
17983;SDS011;9117;52.420;20.728;2023-05-07T14:31:00;4.78;;;1.90;;
17983;SDS011;9117;52.420;20.728;2023-05-07T14:33:28;1.95;;;1.33;;
17983;SDS011;9117;52.420;20.728;2023-05-07T14:35:56;3.92;;;1.42;;
17983;SDS011;9117;52.420;20.728;2023-05-07T14:38:24;4.70;;;1.63;;
17983;SDS011;9117;52.420;20.728;2023-05-07T14:40:53;3.03;;;1.40;;
17983;SDS011;9117;52.420;20.728;2023-05-07T14:43:22;3.55;;;1.52;;
17983;SDS011;9117;52.420;20.728;2023-05-07T14:45:52;2.33;;;1.48;;
17983;SDS011;9117;52.420;20.728;2023-05-07T14:48:20;4.68;;;1.52;;
17983;SDS011;9117;52.420;20.728;2023-05-07T14:50:48;3.03;;;1.48;;
17983;SDS011;9117;52.420;20.728;2023-05-07T14:53:17;2.42;;;1.50;;
17983;SDS011;9117;52.420;20.728;2023-05-07T14:55:46;1.98;;;1.20;;
17983;SDS011;9117;52.420;20.728;2023-05-07T14:58:15;2.55;;;1.58;;
17983;SDS011;9117;52.420;20.728;2023-05-07T15:00:43;3.13;;;1.33;;
17983;SDS011;9117;52.420;20.728;2023-05-07T15:03:13;5.65;;;1.50;;
17983;SDS011;9117;52.420;20.728;2023-05-07T15:05:42;3.03;;;1.58;;
17983;SDS011;9117;52.420;20.728;2023-05-07T15:08:10;3.92;;;1.65;;
17983;SDS011;9117;52.420;20.728;2023-05-07T15:10:38;2.05;;;1.35;;
17983;SDS011;9117;52.420;20.728;2023-05-07T15:13:08;1.60;;;1.15;;